Claremont Municipal Airport


Codes: KCNH/CNH
Name: Claremont Municipal Airport
City: Claremont
Country: United States
Elevation: 545 ft.
Website:
Wikipedia:

Photos at Claremont Municipal Airport


   Photos courtesy of SpottingLog. You can add your own sightings and photos by signing up for a free trial today.



No photos found.

Weather at Claremont Municipal Airport


Time (UTC)DescriptionTempratureWindCloud coverageVisibilityPressureHumidity
25-Jun-2024 15:00Clear Sky22°C9 mph, NW0%10000m1007hPa78%
25-Jun-2024 18:00Clear Sky24°C9 mph, NW1%10000m1008hPa62%
25-Jun-2024 21:00Few Clouds27°C9 mph, W11%10000m1008hPa46%
26-Jun-2024 00:00Broken Clouds22°C7 mph, SW58%10000m1009hPa60%
26-Jun-2024 03:00Overcast Clouds18°C4 mph, SW93%10000m1008hPa69%
26-Jun-2024 06:00Overcast Clouds20°C4 mph, S94%10000m1006hPa64%
26-Jun-2024 09:00Overcast Clouds19°C4 mph, S95%10000m1006hPa68%
26-Jun-2024 12:00Broken Clouds23°C9 mph, SW80%10000m1005hPa66%
26-Jun-2024 15:00Broken Clouds27°C13 mph, W67%10000m1006hPa47%
26-Jun-2024 18:00Broken Clouds30°C11 mph, W68%10000m1005hPa29%
26-Jun-2024 21:00Overcast Clouds29°C9 mph, NW89%10000m1004hPa35%
27-Jun-2024 00:00Overcast Clouds23°C2 mph, N85%10000m1004hPa65%
27-Jun-2024 03:00Overcast Clouds21°C4 mph, S100%10000m1003hPa69%
27-Jun-2024 06:00Moderate Rain18°C4 mph, SE100%9064m999hPa99%
27-Jun-2024 09:00Light Rain17°C11 mph, NW100%10000m1002hPa96%
27-Jun-2024 12:00Overcast Clouds18°C9 mph, W90%10000m1005hPa87%
27-Jun-2024 15:00Broken Clouds22°C11 mph, NW65%10000m1006hPa58%
27-Jun-2024 18:00Light Rain23°C11 mph, NW54%10000m1008hPa50%
27-Jun-2024 21:00Few Clouds24°C9 mph, NW23%10000m1009hPa37%
28-Jun-2024 00:00Scattered Clouds17°C9 mph, N46%10000m1012hPa55%
28-Jun-2024 03:00Few Clouds12°C2 mph, NW21%10000m1015hPa71%
28-Jun-2024 06:00Few Clouds10°C2 mph, W16%10000m1016hPa79%
28-Jun-2024 09:00Scattered Clouds9°C2 mph, NW41%10000m1018hPa79%
28-Jun-2024 12:00Broken Clouds15°C2 mph, N63%10000m1021hPa56%
28-Jun-2024 15:00Broken Clouds21°C4 mph, NW69%10000m1020hPa35%
28-Jun-2024 18:00Broken Clouds25°C2 mph, NW68%10000m1019hPa28%
28-Jun-2024 21:00Scattered Clouds26°C2 mph, S43%10000m1018hPa28%
29-Jun-2024 00:00Scattered Clouds19°C4 mph, S38%10000m1019hPa66%
29-Jun-2024 03:00Overcast Clouds16°C4 mph, SE100%10000m1021hPa67%
29-Jun-2024 06:00Overcast Clouds14°C4 mph, S100%10000m1021hPa69%
29-Jun-2024 09:00Overcast Clouds14°C4 mph, S100%10000m1021hPa69%
29-Jun-2024 12:00Overcast Clouds16°C7 mph, S100%10000m1020hPa74%
29-Jun-2024 15:00Light Rain17°C9 mph, S100%10000m1018hPa89%
29-Jun-2024 18:00Light Rain19°C9 mph, S100%10000m1016hPa98%
29-Jun-2024 21:00Light Rain20°C9 mph, S100%9170m1015hPa99%
30-Jun-2024 00:00Light Rain21°C7 mph, N100%0m1014hPa99%
30-Jun-2024 03:00Light Rain21°C7 mph, N100%0m1013hPa99%
30-Jun-2024 06:00Overcast Clouds22°C7 mph, N100%0m1011hPa99%
30-Jun-2024 09:00Light Rain22°C7 mph, S100%8813m1011hPa99%
30-Jun-2024 12:00Light Rain22°C4 mph, SW100%5150m1011hPa98%